Time;durP1;ratioP1;P1;durP2;ratioP2;P2;SDS_P1;SDS_P2;PMS_P1;PMS_P2;Temp;Humidity;BMP_temperature;BMP_pressure;BME280_temperature;BME280_humidity;BME280_pressure;Samples;Min_cycle;Max_cycle;Signal;HPM_P1;HPM_P2
2021/11/22 06:04:07;;;;;;;2.17;0.52;;;;;;;16.85;59.02;102663.72;4922061;24;20038;-83
2021/11/22 06:12:01;;;;;;;11.45;2.88;;;;;;;16.84;59.41;102667.19;5076887;24;20058;-80
2021/11/22 06:18:14;;;;;;;8.90;3.40;;;;;;;16.81;59.24;102674.91;4846446;29;20037;-81
2021/11/22 06:44:04;;;;;;;6.75;2.63;;;;;;;16.76;59.26;102712.91;4021899;27;20039;-84
2021/11/22 06:46:49;;;;;;;7.38;2.50;;;;;;;16.75;59.28;102716.34;4813392;29;20039;-81
2021/11/22 06:53:07;;;;;;;6.63;2.80;;;;;;;16.76;59.35;102721.56;4814309;29;20038;-84
2021/11/22 07:07:36;;;;;;;5.50;2.50;;;;;;;16.78;59.32;102763.22;3065280;24;20067;-83
2021/11/22 07:13:16;;;;;;;5.97;2.20;;;;;;;16.77;59.13;102762.34;4826100;29;20005;-84
2021/11/22 07:19:53;;;;;;;7.30;2.90;;;;;;;16.95;58.98;102774.94;4831079;29;20091;-84
2021/11/22 07:26:09;;;;;;;6.72;2.30;;;;;;;17.12;58.74;102784.88;4829980;29;20049;-83
2021/11/22 07:28:48;;;;;;;9.05;2.63;;;;;;;17.16;58.92;102784.97;4813832;29;20062;-83
2021/11/22 07:35:14;;;;;;;5.30;2.00;;;;;;;17.18;58.95;102782.38;4829136;29;20037;-83
2021/11/22 07:38:11;;;;;;;5.88;2.35;;;;;;;17.21;58.90;102792.88;4791417;29;20085;-84
2021/11/22 07:40:46;;;;;;;8.30;2.60;;;;;;;17.22;58.34;102789.44;4778191;29;20055;-83
2021/11/22 07:43:15;;;;;;;8.02;2.42;;;;;;;17.22;58.67;102795.53;4791923;29;20081;-83
2021/11/22 07:45:50;;;;;;;8.68;2.75;;;;;;;17.24;58.51;102799.03;4777461;30;20063;-83
2021/11/22 07:48:19;;;;;;;6.47;2.28;;;;;;;17.22;58.98;102798.13;4790288;30;20032;-83
2021/11/22 07:51:06;;;;;;;7.97;2.78;;;;;;;17.26;58.39;102815.53;4789843;30;20039;-84
2021/11/22 07:53:39;;;;;;;10.07;2.70;;;;;;;17.28;58.44;102818.19;4783846;30;20524;-83
2021/11/22 07:56:06;;;;;;;6.25;2.33;;;;;;;17.28;58.29;102818.19;4789137;30;20036;-82
2021/11/22 07:58:34;;;;;;;6.53;2.20;;;;;;;17.30;58.49;102821.72;4789468;30;20036;-83
2021/11/22 08:01:25;;;;;;;8.40;2.35;;;;;;;17.31;58.62;102833.91;4790496;30;20066;-83
2021/11/22 08:04:44;;;;;;;5.30;2.30;;;;;;;17.33;58.47;102834.78;4790667;29;20016;-83
2021/11/22 08:07:17;;;;;;;5.93;2.10;;;;;;;17.34;58.49;102839.16;4772294;30;20082;-83
2021/11/22 08:16:35;;;;;;;4.45;2.10;;;;;;;17.43;57.70;102854.97;4771392;30;20067;-85
2021/11/22 08:19:21;;;;;;;6.72;2.20;;;;;;;17.46;58.05;102855.06;4756675;30;20028;-82
2021/11/22 08:21:59;;;;;;;5.40;2.30;;;;;;;17.51;57.47;102849.97;4809317;29;20040;-82
2021/11/22 08:24:26;;;;;;;4.18;1.98;;;;;;;17.52;57.90;102850.84;4792529;29;20038;-82
2021/11/22 08:27:03;;;;;;;4.85;1.98;;;;;;;17.54;57.51;102846.56;4792002;29;20042;-82
2021/11/22 08:29:31;;;;;;;9.10;2.00;;;;;;;17.54;57.71;102852.63;4806284;29;20074;-82
2021/11/22 08:32:38;;;;;;;6.18;2.10;;;;;;;17.57;57.56;102851.81;4806693;29;20034;-83
2021/11/22 08:49:22;;;;;;;3.85;1.70;;;;;;;17.54;57.49;102877.78;4751045;30;20037;-83
2021/11/22 08:51:51;;;;;;;3.55;1.85;;;;;;;17.53;57.77;102882.13;4796114;29;20023;-83
2021/11/22 08:54:21;;;;;;;4.65;1.60;;;;;;;17.52;57.52;102882.94;4808214;29;20121;-84
2021/11/22 08:57:11;;;;;;;4.80;1.85;;;;;;;17.51;57.63;102883.81;4792923;30;20065;-83
2021/11/22 09:17:45;;;;;;;4.65;1.70;;;;;;;17.42;57.96;102905.28;4768358;30;20422;-81
2021/11/22 11:23:57;;;;;;;3.35;1.10;;;;;;;17.38;56.91;102971.13;4826295;29;20050;-82
2021/11/22 11:26:30;;;;;;;3.38;1.20;;;;;;;17.40;56.92;102969.44;4815145;29;20032;-82
2021/11/22 14:30:14;;;;;;;1.20;0.65;;;;;;;17.44;55.55;103018.13;2990764;24;20342;-85
2021/11/22 14:33:07;;;;;;;2.22;0.80;;;;;;;17.44;55.70;103022.44;4816049;29;20054;-86
2021/11/22 14:36:16;;;;;;;2.20;0.80;;;;;;;17.45;55.74;103016.41;4845571;29;20023;-85
2021/11/22 14:39:04;;;;;;;1.95;1.00;;;;;;;17.51;55.54;103020.88;4809785;29;20039;-85
2021/11/22 14:41:42;;;;;;;1.60;0.70;;;;;;;17.50;55.71;103026.94;4769789;29;20084;-86
2021/11/22 14:44:13;;;;;;;3.47;0.93;;;;;;;17.50;55.64;103021.72;4729571;30;20044;-85
2021/11/22 15:02:25;;;;;;;2.13;0.65;;;;;;;17.50;55.60;103027.81;5219079;24;20068;-86
2021/11/22 15:04:56;;;;;;;1.35;0.77;;;;;;;17.51;55.78;103029.59;4847253;29;20034;-86
2021/11/22 15:07:50;;;;;;;1.40;0.60;;;;;;;17.52;55.70;103031.34;4922035;24;20050;-86
2021/11/22 15:10:21;;;;;;;1.85;0.60;;;;;;;17.53;55.68;103034.81;4847045;29;20075;-86
2021/11/22 15:12:51;;;;;;;1.60;0.70;;;;;;;17.52;55.58;103027.84;4842986;29;20039;-85
2021/11/22 15:15:35;;;;;;;1.58;0.40;;;;;;;17.53;55.87;103040.00;4813150;29;20033;-84
2021/11/22 15:18:20;;;;;;;1.50;0.70;;;;;;;17.51;55.68;103028.69;4827761;29;20027;-82
2021/11/22 15:21:08;;;;;;;1.60;0.52;;;;;;;17.53;55.78;103030.50;4825422;29;20047;-84
2021/11/22 15:23:35;;;;;;;1.73;0.70;;;;;;;17.54;55.89;103034.84;4828170;29;20080;-83
2021/11/22 15:26:13;;;;;;;1.05;0.68;;;;;;;17.55;55.88;103033.13;4842715;29;20038;-84
2021/11/22 15:29:02;;;;;;;1.52;0.80;;;;;;;17.53;55.52;103034.81;4830956;29;20026;-83
2021/11/22 15:32:05;;;;;;;1.42;0.88;;;;;;;17.52;55.76;103041.75;4829483;29;20045;-81
2021/11/22 15:34:56;;;;;;;1.77;0.75;;;;;;;17.54;55.74;103050.47;4816950;29;20034;-83
2021/11/22 15:38:06;;;;;;;3.50;0.70;;;;;;;17.57;55.89;103060.09;4799602;29;20095;-83
2021/11/22 15:41:18;;;;;;;1.63;0.70;;;;;;;17.56;55.60;103055.72;4832498;29;20045;-82
2021/11/22 15:50:51;;;;;;;1.70;0.75;;;;;;;17.57;55.74;103057.47;4775197;30;20104;-81
2021/11/22 15:53:19;;;;;;;1.95;0.70;;;;;;;17.55;56.00;103053.94;4769999;30;20044;-82
2021/11/22 16:05:06;;;;;;;2.63;0.80;;;;;;;17.61;55.78;103069.75;4847462;29;20057;-84
2021/11/22 16:11:23;;;;;;;3.63;0.82;;;;;;;17.60;55.86;103065.38;4846705;29;20605;-83
2021/11/22 16:25:57;;;;;;;3.97;0.93;;;;;;;17.60;55.96;103063.66;4865277;24;20051;-85
2021/11/22 16:28:26;;;;;;;1.52;0.90;;;;;;;17.60;56.17;103068.88;4812078;29;20055;-84
2021/11/22 16:31:00;;;;;;;1.85;0.77;;;;;;;17.61;55.85;103074.94;4813495;29;20099;-84
2021/11/22 16:33:33;;;;;;;;;;;;;;;17.62;56.11;103068.91;4827491;29;20055;-85
2021/11/22 16:36:50;;;;;;;3.58;0.77;;;;;;;17.62;55.91;103080.19;4828813;29;19917;-83
2021/11/22 16:50:55;;;;;;;1.63;0.73;;;;;;;17.60;56.00;103081.88;4854259;24;20051;-84
2021/11/22 16:57:00;;;;;;;1.25;0.60;;;;;;;17.63;55.99;103079.34;4953734;24;20440;-83
2021/11/22 16:59:26;;;;;;;2.20;0.88;;;;;;;17.63;56.00;103081.06;4845556;29;20050;-84
2021/11/22 17:01:54;;;;;;;2.35;0.88;;;;;;;17.62;56.10;103088.00;4845324;29;20078;-85
2021/11/22 17:04:24;;;;;;;3.53;0.73;;;;;;;17.65;56.14;103084.59;4917813;24;20063;-84
2021/11/22 17:06:52;;;;;;;2.78;1.08;;;;;;;17.64;56.26;103082.84;4828241;29;20034;-85
2021/11/22 17:09:19;;;;;;;2.42;0.85;;;;;;;17.61;56.02;103086.22;4827297;29;20025;-86
2021/11/22 17:11:49;;;;;;;1.58;0.80;;;;;;;17.64;55.93;103090.66;4827913;29;20033;-85
2021/11/22 17:14:27;;;;;;;2.78;0.90;;;;;;;17.64;56.18;103090.66;4811630;29;20022;-84
2021/11/22 17:16:56;;;;;;;1.83;0.70;;;;;;;17.63;56.10;103089.75;4812749;29;20048;-85
2021/11/22 17:20:02;;;;;;;2.30;0.68;;;;;;;17.66;56.14;103086.38;4827126;29;20064;-84
2021/11/22 17:22:29;;;;;;;2.13;0.82;;;;;;;17.64;56.04;103088.94;4825817;29;20061;-81
2021/11/22 17:24:55;;;;;;;2.20;0.82;;;;;;;17.63;56.04;103079.34;4811245;29;20050;-81
2021/11/22 17:27:21;;;;;;;1.83;0.70;;;;;;;17.64;56.13;103083.72;4828812;29;20026;-81
2021/11/22 17:30:24;;;;;;;0.98;0.70;;;;;;;17.66;56.15;103087.25;4823956;29;20031;-81
2021/11/22 17:32:52;;;;;;;1.85;0.88;;;;;;;17.65;56.13;103085.47;4826244;29;20035;-82
2021/11/22 17:35:19;;;;;;;2.38;1.00;;;;;;;17.66;56.19;103086.38;4822763;29;20031;-79
2021/11/22 17:38:03;;;;;;;1.83;1.00;;;;;;;17.63;55.86;103087.16;4824216;29;20035;-81
2021/11/22 17:40:30;;;;;;;1.67;0.93;;;;;;;17.55;56.33;103090.41;4828582;29;20038;-81
2021/11/22 17:43:02;;;;;;;1.75;0.88;;;;;;;17.48;56.37;103089.34;4828303;29;20025;-81
2021/11/22 17:45:54;;;;;;;2.45;1.15;;;;;;;17.42;56.38;103092.69;4814563;29;20042;-83
2021/11/22 17:48:41;;;;;;;1.73;1.00;;;;;;;17.41;56.44;103097.84;4812516;29;20051;-86
2021/11/22 17:51:45;;;;;;;4.25;1.20;;;;;;;17.38;56.56;103090.84;4815216;29;20023;-85
2021/11/22 18:06:08;;;;;;;15.32;5.60;;;;;;;17.33;56.98;103110.63;2236334;27;19925;-82
2021/11/22 18:30:56;;;;;;;18.85;6.95;;;;;;;17.35;57.74;103148.00;4850961;29;20133;-85
2021/11/22 19:08:54;;;;;;;14.85;5.47;;;;;;;17.25;58.36;103172.03;4847327;29;20060;-85
2021/11/22 19:11:54;;;;;;;12.70;5.30;;;;;;;17.22;58.18;103167.63;4827568;29;20068;-87
2021/11/22 19:24:22;;;;;;;9.27;4.55;;;;;;;17.24;58.35;103167.63;4828378;29;20103;-85
2021/11/22 19:27:14;;;;;;;11.35;4.90;;;;;;;17.24;58.34;103157.22;4812281;29;20050;-84
2021/11/22 19:33:02;;;;;;;9.60;4.88;;;;;;;17.22;58.19;103167.63;4791384;30;20047;-85
2021/11/22 19:35:34;;;;;;;10.82;4.97;;;;;;;17.22;58.28;103164.09;4762662;30;20038;-85
2021/11/22 20:08:08;;;;;;;8.65;4.75;;;;;;;17.19;58.21;103177.91;4870027;24;20079;-86
2021/11/22 20:10:52;;;;;;;8.90;4.70;;;;;;;17.19;58.31;103182.25;4828368;29;20067;-85
2021/11/22 20:13:47;;;;;;;11.18;5.10;;;;;;;17.18;58.06;103183.97;4812923;29;20053;-85
2021/11/22 21:04:39;;;;;;;10.10;6.10;;;;;;;17.13;57.97;103198.53;5382557;24;20054;-83
2021/11/22 21:07:08;;;;;;;9.10;5.25;;;;;;;17.13;57.85;103203.75;4817703;29;20058;-81
2021/11/22 21:19:28;;;;;;;7.63;5.30;;;;;;;17.14;58.03;103202.94;4820202;29;20058;-80
